createdAt,value
2022-11-28T00:00:04.982Z,101067.03
2022-11-28T00:01:05.046Z,101057.56
2022-11-28T00:01:52.048Z,101067.97
2022-11-28T00:02:33.097Z,101061.91
2022-11-28T00:03:07.161Z,101066.41
2022-11-28T00:03:54.979Z,101056.69
2022-11-28T00:04:29.011Z,101060.28
2022-11-28T00:05:19.963Z,101060.53
2022-11-28T00:05:54.019Z,101060.34
2022-11-28T00:06:51.997Z,101044.44
2022-11-28T00:07:26.038Z,101057.63
2022-11-28T00:08:06.018Z,101056.00
2022-11-28T00:08:46.154Z,101053.09
2022-11-28T00:09:26.986Z,101063.75
2022-11-28T00:10:07.832Z,101056.75
2022-11-28T00:10:48.965Z,101057.56
2022-11-28T00:11:29.040Z,101068.97
2022-11-28T00:12:08.956Z,101058.25
2022-11-28T00:12:48.979Z,101062.63
2022-11-28T00:13:28.983Z,101048.66
2022-11-28T00:14:09.032Z,101060.06
2022-11-28T00:14:49.963Z,101058.19
2022-11-28T00:15:30.102Z,101067.94
2022-11-28T00:16:13.982Z,101062.63
2022-11-28T00:16:54.120Z,101057.31
2022-11-28T00:17:34.221Z,101064.53
2022-11-28T00:18:15.054Z,101061.06
2022-11-28T00:18:56.983Z,101050.41
2022-11-28T00:19:37.991Z,101056.59
2022-11-28T00:20:18.971Z,101061.31
2022-11-28T00:20:59.006Z,101044.63
2022-11-28T00:21:39.949Z,101061.22
2022-11-28T00:22:19.986Z,101049.75
2022-11-28T00:22:59.946Z,101055.25
2022-11-28T00:23:40.975Z,101052.28
2022-11-28T00:24:21.965Z,101056.84
2022-11-28T00:25:03.030Z,101049.88
2022-11-28T00:25:42.947Z,101054.16
2022-11-28T00:26:37.023Z,101059.34
2022-11-28T00:27:16.973Z,101041.94
2022-11-28T00:27:56.970Z,101056.69
2022-11-28T00:28:37.988Z,101050.63
2022-11-28T00:29:18.982Z,101044.47
2022-11-28T00:29:58.961Z,101058.56
2022-11-28T00:30:44.028Z,101063.88
2022-11-28T00:31:31.075Z,101046.34
2022-11-28T00:32:11.098Z,101056.00
2022-11-28T00:32:50.959Z,101051.84
2022-11-28T00:33:32.020Z,101049.22
2022-11-28T00:34:11.997Z,101049.31
2022-11-28T00:34:52.121Z,101052.63
2022-11-28T00:35:32.047Z,101042.28
2022-11-28T00:36:13.357Z,101046.63
2022-11-28T00:36:53.925Z,101049.34
2022-11-28T00:37:33.983Z,101042.28
2022-11-28T00:38:14.909Z,101036.06
2022-11-28T00:38:55.954Z,101039.78
2022-11-28T00:39:35.939Z,101041.97
2022-11-28T00:40:17.028Z,101032.69
2022-11-28T00:41:08.991Z,101042.19
2022-11-28T00:41:49.990Z,101044.75
2022-11-28T00:42:30.965Z,101041.38
2022-11-28T00:43:11.749Z,101040.38
2022-11-28T00:43:53.935Z,101039.31
2022-11-28T00:44:33.995Z,101040.22
2022-11-28T00:45:14.931Z,101035.75
2022-11-28T00:45:55.033Z,101029.72
2022-11-28T00:46:36.962Z,101040.00
2022-11-28T00:47:18.031Z,101029.34
2022-11-28T00:47:57.959Z,101037.25
2022-11-28T00:48:39.987Z,101026.69
2022-11-28T00:49:19.935Z,101031.09
2022-11-28T00:49:59.967Z,101036.31
2022-11-28T00:50:39.903Z,101032.00
2022-11-28T00:51:23.126Z,101009.50
2022-11-28T00:52:03.923Z,101036.53
2022-11-28T00:52:43.969Z,101027.84
2022-11-28T00:53:23.928Z,101025.28
2022-11-28T00:54:07.004Z,101027.22
2022-11-28T00:54:46.924Z,101035.03
2022-11-28T00:55:27.217Z,101033.28
2022-11-28T00:56:06.919Z,101028.84
2022-11-28T00:56:47.947Z,101026.13
2022-11-28T00:57:27.924Z,101010.38
2022-11-28T00:58:07.935Z,101017.19
2022-11-28T00:58:48.911Z,101031.31
2022-11-28T00:59:29.021Z,101027.75
2022-11-28T01:00:12.015Z,101031.97
2022-11-28T01:00:52.081Z,101036.31
2022-11-28T01:01:38.999Z,101029.13
2022-11-28T01:02:19.034Z,101028.25
2022-11-28T01:03:00.956Z,101016.91
2022-11-28T01:03:40.927Z,101015.09
2022-11-28T01:04:23.910Z,101017.91
2022-11-28T01:05:03.926Z,101011.88
2022-11-28T01:05:49.912Z,101019.78
2022-11-28T01:06:31.979Z,101025.97
2022-11-28T01:07:11.961Z,101001.44
2022-11-28T01:07:51.956Z,101034.81
2022-11-28T01:08:31.933Z,101021.53
2022-11-28T01:09:26.040Z,101025.13
2022-11-28T01:10:06.920Z,101024.38
2022-11-28T01:10:49.053Z,101019.91
2022-11-28T01:11:29.871Z,101029.56
2022-11-28T01:12:09.965Z,101022.53
2022-11-28T01:12:56.916Z,101020.66
2022-11-28T01:13:31.101Z,101019.69
2022-11-28T01:14:11.921Z,101026.69
2022-11-28T01:14:51.926Z,101020.56
2022-11-28T01:15:31.957Z,101022.19
2022-11-28T01:16:13.192Z,101017.97
2022-11-28T01:16:52.946Z,101021.41
2022-11-28T01:17:32.991Z,101021.25
2022-11-28T01:18:12.892Z,101014.22
2022-11-28T01:18:52.970Z,101018.59
2022-11-28T01:19:33.910Z,101013.34
2022-11-28T01:20:15.932Z,101011.41
2022-11-28T01:20:55.901Z,101003.72
2022-11-28T01:21:35.921Z,101012.41
2022-11-28T01:22:15.884Z,101011.63
2022-11-28T01:22:55.939Z,101012.34
2022-11-28T01:23:35.908Z,101001.31
2022-11-28T01:24:30.886Z,101007.41
2022-11-28T01:25:11.937Z,101004.69
2022-11-28T01:25:51.952Z,101008.19
2022-11-28T01:26:34.899Z,100994.25
2022-11-28T01:27:14.886Z,100993.31
2022-11-28T01:27:54.886Z,100995.97
2022-11-28T01:28:36.076Z,100990.09
2022-11-28T01:29:16.852Z,100994.25
2022-11-28T01:29:56.920Z,101002.38
2022-11-28T01:30:36.907Z,100996.91
2022-11-28T01:31:20.998Z,100995.97
2022-11-28T01:32:00.910Z,100987.31
2022-11-28T01:32:40.963Z,100987.19
2022-11-28T01:33:20.897Z,100990.66
2022-11-28T01:34:02.906Z,100983.72
2022-11-28T01:34:43.067Z,100993.28
2022-11-28T01:35:23.879Z,100980.00
2022-11-28T01:36:05.979Z,100981.00
2022-11-28T01:36:45.915Z,100980.91
2022-11-28T01:37:25.881Z,100973.19
2022-11-28T01:38:06.293Z,100979.13
2022-11-28T01:38:46.894Z,100988.81
2022-11-28T01:39:26.938Z,100980.00
2022-11-28T01:40:06.862Z,100971.22
2022-11-28T01:40:52.946Z,100976.25
2022-11-28T01:41:34.883Z,100983.38
2022-11-28T01:42:22.898Z,100964.03
2022-11-28T01:43:03.853Z,100976.19
2022-11-28T01:43:44.928Z,100977.88
2022-11-28T01:44:24.866Z,100973.41
2022-11-28T01:45:40.160Z,100978.88
2022-11-28T01:46:19.886Z,100957.09
2022-11-28T01:46:59.944Z,100956.94
2022-11-28T01:47:35.898Z,100965.53
2022-11-28T01:48:39.874Z,100972.72
2022-11-28T01:49:34.043Z,100961.16
2022-11-28T01:50:20.850Z,100970.75
2022-11-28T01:50:55.939Z,100963.81
2022-11-28T01:51:42.894Z,100955.13
2022-11-28T01:52:27.882Z,100954.19
2022-11-28T01:53:22.856Z,100949.66
2022-11-28T01:54:17.839Z,100953.16
2022-11-28T01:55:13.860Z,100953.38
2022-11-28T01:56:17.832Z,100947.38
2022-11-28T01:57:19.841Z,100953.38
2022-11-28T01:58:00.884Z,100953.38
2022-11-28T01:58:42.929Z,100958.69
2022-11-28T01:59:23.847Z,100951.63
2022-11-28T02:00:25.899Z,100951.63
2022-11-28T02:01:06.877Z,100951.59
2022-11-28T02:01:46.993Z,100947.13
2022-11-28T02:02:44.831Z,100954.19
2022-11-28T02:03:32.843Z,100951.63
2022-11-28T02:04:06.976Z,100946.50
2022-11-28T02:04:54.835Z,100936.06
2022-11-28T02:05:28.900Z,100946.50
2022-11-28T02:06:17.849Z,100956.03
2022-11-28T02:06:51.885Z,100947.38
2022-11-28T02:07:39.901Z,100943.78
2022-11-28T02:08:16.058Z,100934.09
2022-11-28T02:08:59.839Z,100948.03
2022-11-28T02:09:39.855Z,100938.31
2022-11-28T02:10:40.819Z,100943.47
2022-11-28T02:11:56.858Z,100949.56
2022-11-28T02:13:16.845Z,100942.53
2022-11-28T02:14:25.869Z,100944.25
2022-11-28T02:15:46.859Z,100935.78
2022-11-28T02:17:09.846Z,100946.06
2022-11-28T02:18:24.852Z,100925.00
2022-11-28T02:19:49.860Z,100939.00
2022-11-28T02:21:17.821Z,100923.91
2022-11-28T02:22:37.824Z,100927.50
2022-11-28T02:23:48.828Z,100914.34
2022-11-28T02:25:13.867Z,100920.50
2022-11-28T02:27:00.838Z,100923.78
2022-11-28T02:28:33.808Z,100923.91
2022-11-28T02:30:04.814Z,100917.84
2022-11-28T02:31:16.913Z,100917.94
2022-11-28T02:32:20.934Z,100916.22
2022-11-28T02:33:19.802Z,100904.06
2022-11-28T02:34:09.892Z,100891.03
2022-11-28T02:35:22.844Z,100912.63
2022-11-28T02:36:13.881Z,100890.06
2022-11-28T02:36:57.953Z,100910.75
2022-11-28T02:37:55.924Z,100912.56
2022-11-28T02:38:53.818Z,100904.69
2022-11-28T02:39:38.879Z,100904.63
2022-11-28T02:40:51.807Z,100906.34
2022-11-28T02:41:38.887Z,100908.28
2022-11-28T02:42:24.847Z,100912.94
2022-11-28T02:43:31.530Z,100902.22
2022-11-28T02:44:30.798Z,100900.66
2022-11-28T02:45:36.829Z,100911.94
2022-11-28T02:46:40.812Z,100908.41
2022-11-28T02:47:58.815Z,100915.59
2022-11-28T02:49:17.782Z,100906.59
2022-11-28T02:50:34.785Z,100900.47
2022-11-28T02:51:53.821Z,100894.75
2022-11-28T02:52:55.789Z,100902.50
2022-11-28T02:53:37.836Z,100892.81
2022-11-28T02:54:32.811Z,100894.56
2022-11-28T02:55:27.792Z,100881.44
2022-11-28T02:56:23.824Z,100891.00
2022-11-28T02:57:17.820Z,100888.34
2022-11-28T02:58:11.792Z,100889.94
2022-11-28T02:58:58.803Z,100878.66
2022-11-28T02:59:43.816Z,100872.69
2022-11-28T03:00:41.853Z,100888.19
2022-11-28T03:01:30.947Z,100892.56
2022-11-28T03:02:49.781Z,100884.75
2022-11-28T03:03:33.147Z,100884.97
2022-11-28T03:04:31.791Z,100897.44
2022-11-28T03:05:18.829Z,100896.50
2022-11-28T03:06:18.773Z,100895.50
2022-11-28T03:07:19.896Z,100890.94
2022-11-28T03:08:42.760Z,100891.91
2022-11-28T03:09:44.816Z,100899.84
2022-11-28T03:11:01.801Z,100887.50
2022-11-28T03:12:23.770Z,100893.53
2022-11-28T03:14:04.755Z,100886.69
2022-11-28T03:15:15.807Z,100893.91
2022-11-28T03:16:26.909Z,100884.22
2022-11-28T03:17:59.776Z,100889.22
2022-11-28T03:19:28.773Z,100883.34
2022-11-28T03:20:37.768Z,100890.31
2022-11-28T03:21:39.772Z,100890.31
2022-11-28T03:22:54.789Z,100897.69
2022-11-28T03:23:59.801Z,100883.59
2022-11-28T03:25:11.757Z,100889.69
2022-11-28T03:26:06.765Z,100893.22
2022-11-28T03:26:53.858Z,100891.41
2022-11-28T03:27:53.732Z,100883.47
2022-11-28T03:28:58.784Z,100894.94
2022-11-28T03:30:06.754Z,100890.53
2022-11-28T03:31:20.797Z,100901.19
2022-11-28T03:32:21.739Z,100889.00
2022-11-28T03:33:16.766Z,100888.91
2022-11-28T03:34:12.730Z,100894.28
2022-11-28T03:35:13.747Z,100889.91
2022-11-28T03:36:16.750Z,100888.91
2022-11-28T03:37:03.854Z,100892.50
2022-11-28T03:37:55.791Z,100876.94
2022-11-28T03:38:48.741Z,100882.19
2022-11-28T03:39:31.759Z,100884.16
2022-11-28T03:40:17.716Z,100890.22
2022-11-28T03:41:01.761Z,100882.19
2022-11-28T03:41:49.731Z,100883.91
2022-11-28T03:42:34.758Z,100889.13
2022-11-28T03:43:11.813Z,100889.25
2022-11-28T03:44:01.785Z,100892.72
2022-11-28T03:44:38.804Z,100876.06
2022-11-28T03:45:30.724Z,100888.16
2022-11-28T03:46:10.779Z,100888.16
2022-11-28T03:46:58.788Z,100887.13
2022-11-28T03:47:46.772Z,100891.41
2022-11-28T03:48:45.796Z,100888.81
2022-11-28T03:49:44.744Z,100874.91
2022-11-28T03:50:55.754Z,100882.59
2022-11-28T03:52:12.716Z,100895.09
2022-11-28T03:53:19.717Z,100889.69
2022-11-28T03:54:19.732Z,100880.84
2022-11-28T03:55:36.759Z,100868.72
2022-11-28T03:56:38.741Z,100879.88
2022-11-28T03:58:13.754Z,100884.16
2022-11-28T03:59:01.722Z,100879.75
2022-11-28T03:59:51.775Z,100875.34
2022-11-28T04:00:32.900Z,100884.34
2022-11-28T04:01:57.816Z,100872.06
2022-11-28T04:03:04.771Z,100876.41
2022-11-28T04:04:12.764Z,100879.88
2022-11-28T04:05:31.724Z,100872.84
2022-11-28T04:07:01.762Z,100869.41
2022-11-28T04:08:00.800Z,100871.94
2022-11-28T04:09:02.720Z,100858.13
2022-11-28T04:09:47.762Z,100867.84
2022-11-28T04:10:44.792Z,100871.31
2022-11-28T04:11:35.751Z,100861.75
2022-11-28T04:12:34.764Z,100865.28
2022-11-28T04:13:30.716Z,100845.63
2022-11-28T04:14:33.778Z,100861.94
2022-11-28T04:15:24.741Z,100869.81
2022-11-28T04:16:25.791Z,100875.94
2022-11-28T04:17:34.707Z,100869.72
2022-11-28T04:18:49.852Z,100873.28
2022-11-28T04:19:56.691Z,100873.63
2022-11-28T04:20:52.727Z,100873.69
2022-11-28T04:22:00.782Z,100860.59
2022-11-28T04:23:04.689Z,100870.16
2022-11-28T04:24:00.700Z,100869.81
2022-11-28T04:25:00.688Z,100853.94
2022-11-28T04:25:59.708Z,100859.22
2022-11-28T04:27:09.673Z,100862.63
2022-11-28T04:28:11.658Z,100866.22
2022-11-28T04:29:06.691Z,100855.81
2022-11-28T04:30:05.700Z,100868.94
2022-11-28T04:31:02.716Z,100865.53
2022-11-28T04:31:58.766Z,100864.50
2022-11-28T04:33:01.694Z,100864.25
2022-11-28T04:33:58.687Z,100838.19
2022-11-28T04:34:56.703Z,100856.34
2022-11-28T04:35:59.720Z,100842.50
2022-11-28T04:36:44.694Z,100860.56
2022-11-28T04:37:26.732Z,100861.50
2022-11-28T04:38:08.678Z,100851.97
2022-11-28T04:38:56.229Z,100860.78
2022-11-28T04:39:39.643Z,100856.16
2022-11-28T04:40:19.728Z,100861.59
2022-11-28T04:41:08.685Z,100844.06
2022-11-28T04:42:09.786Z,100854.31
2022-11-28T04:43:11.691Z,100861.50
2022-11-28T04:44:16.681Z,100829.19
2022-11-28T04:45:16.672Z,100847.72
2022-11-28T04:46:38.670Z,100838.88
2022-11-28T04:47:25.726Z,100851.06
2022-11-28T04:47:59.742Z,100858.00
2022-11-28T04:48:46.650Z,100839.59
2022-11-28T04:49:20.687Z,100842.44
2022-11-28T04:50:07.661Z,100837.97
2022-11-28T04:50:59.727Z,100839.59
2022-11-28T04:52:18.640Z,100852.56
2022-11-28T04:53:09.668Z,100851.88
2022-11-28T04:54:23.662Z,100836.47
2022-11-28T04:55:40.679Z,100836.44
2022-11-28T04:56:47.679Z,100839.59
2022-11-28T04:57:52.860Z,100842.31
2022-11-28T04:58:47.685Z,100824.25
2022-11-28T04:59:29.774Z,100841.56
2022-11-28T05:00:18.693Z,100828.41
2022-11-28T05:01:00.779Z,100831.84
2022-11-28T05:01:41.722Z,100839.78
2022-11-28T05:02:22.766Z,100830.91
2022-11-28T05:03:03.640Z,100837.19
2022-11-28T05:03:45.695Z,100843.38
2022-11-28T05:04:26.678Z,100825.97
2022-11-28T05:05:06.706Z,100835.31
2022-11-28T05:05:53.633Z,100837.00
2022-11-28T05:06:40.759Z,100833.47
2022-11-28T05:07:20.662Z,100833.53
2022-11-28T05:08:00.749Z,100841.41
2022-11-28T05:08:40.617Z,100831.75
2022-11-28T05:09:21.715Z,100843.09
2022-11-28T05:10:04.682Z,100829.09
2022-11-28T05:10:46.646Z,100844.00
2022-11-28T05:11:27.622Z,100842.19
2022-11-28T05:12:07.698Z,100832.66
2022-11-28T05:12:47.647Z,100840.44
2022-11-28T05:13:27.731Z,100812.50
2022-11-28T05:14:07.639Z,100837.97
2022-11-28T05:14:47.675Z,100837.19
2022-11-28T05:15:28.667Z,100832.72
2022-11-28T05:16:08.687Z,100830.22
2022-11-28T05:16:48.699Z,100839.84
2022-11-28T05:17:28.672Z,100842.56
2022-11-28T05:18:08.628Z,100841.69
2022-11-28T05:18:48.665Z,100838.28
2022-11-28T05:19:28.644Z,100840.84
2022-11-28T05:20:11.693Z,100827.75
2022-11-28T05:20:51.702Z,100836.47
2022-11-28T05:21:31.722Z,100832.88
2022-11-28T05:22:11.619Z,100824.25
2022-11-28T05:22:51.748Z,100821.34
2022-11-28T05:23:31.606Z,100824.97
2022-11-28T05:24:11.674Z,100830.13
2022-11-28T05:24:52.604Z,100838.97
2022-11-28T05:25:32.681Z,100829.19
2022-11-28T05:26:25.692Z,100818.25
2022-11-28T05:27:05.705Z,100818.94
2022-11-28T05:27:45.626Z,100832.09
2022-11-28T05:28:25.667Z,100833.81
2022-11-28T05:29:05.611Z,100833.88
2022-11-28T05:29:51.905Z,100826.75
2022-11-28T05:30:32.650Z,100831.28
2022-11-28T05:31:12.667Z,100829.66
2022-11-28T05:31:52.670Z,100829.88
2022-11-28T05:32:36.503Z,100828.25
2022-11-28T05:33:16.646Z,100830.13
2022-11-28T05:33:56.722Z,100831.06
2022-11-28T05:34:37.611Z,100819.72
2022-11-28T05:35:17.680Z,100822.38
2022-11-28T05:35:57.608Z,100823.31
2022-11-28T05:36:37.677Z,100824.25
2022-11-28T05:37:17.640Z,100815.56
2022-11-28T05:37:57.655Z,100825.91
2022-11-28T05:38:39.607Z,100835.50
2022-11-28T05:39:20.681Z,100831.84
2022-11-28T05:40:00.624Z,100830.13
2022-11-28T05:40:44.310Z,100829.19
2022-11-28T05:41:30.619Z,100825.59
2022-11-28T05:42:10.685Z,100828.16
2022-11-28T05:42:50.691Z,100829.13
2022-11-28T05:43:30.673Z,100829.09
2022-11-28T05:44:12.595Z,100830.00
2022-11-28T05:44:52.793Z,100833.59
2022-11-28T05:45:32.695Z,100829.31
2022-11-28T05:46:12.683Z,100832.94
2022-11-28T05:46:52.599Z,100829.34
2022-11-28T05:47:32.762Z,100815.97
2022-11-28T05:48:13.636Z,100823.88
2022-11-28T05:48:54.676Z,100816.03
2022-11-28T05:49:35.612Z,100824.81
2022-11-28T05:50:16.675Z,100809.13
2022-11-28T05:50:57.611Z,100818.88
2022-11-28T05:51:37.591Z,100822.53
2022-11-28T05:52:17.632Z,100817.59
2022-11-28T05:52:57.641Z,100820.25
2022-11-28T05:53:38.640Z,100814.16
2022-11-28T05:54:18.637Z,100819.41
2022-11-28T05:54:58.612Z,100824.78
2022-11-28T05:55:38.604Z,100819.47
2022-11-28T05:56:24.584Z,100821.47
2022-11-28T05:57:06.457Z,100821.63
2022-11-28T05:57:47.608Z,100815.63
2022-11-28T05:58:27.639Z,100812.25
2022-11-28T05:59:07.621Z,100828.03
2022-11-28T05:59:47.754Z,100828.03
2022-11-28T06:00:28.575Z,100815.94
2022-11-28T06:01:23.636Z,100817.63
2022-11-28T06:02:04.608Z,100825.47
2022-11-28T06:02:44.680Z,100824.41
2022-11-28T06:03:25.600Z,100820.88
2022-11-28T06:04:06.681Z,100827.06
2022-11-28T06:04:48.610Z,100808.66
2022-11-28T06:05:42.189Z,100819.28
2022-11-28T06:06:28.620Z,100823.47
2022-11-28T06:07:09.655Z,100817.03
2022-11-28T06:07:49.658Z,100823.06
2022-11-28T06:08:29.696Z,100819.56
2022-11-28T06:09:11.577Z,100812.50
2022-11-28T06:09:58.591Z,100808.06
2022-11-28T06:10:53.567Z,100815.00
2022-11-28T06:11:48.630Z,100816.81
2022-11-28T06:12:42.632Z,100816.69
2022-11-28T06:13:36.607Z,100813.84
2022-11-28T06:14:30.590Z,100798.28
2022-11-28T06:15:17.623Z,100807.75
2022-11-28T06:15:51.588Z,100799.84
2022-11-28T06:16:38.666Z,100795.41
2022-11-28T06:17:12.595Z,100796.94
2022-11-28T06:18:00.622Z,100811.03
2022-11-28T06:18:34.628Z,100804.78
2022-11-28T06:19:21.600Z,100804.63
2022-11-28T06:19:55.663Z,100802.66
2022-11-28T06:20:42.601Z,100810.69
2022-11-28T06:21:18.712Z,100806.25
2022-11-28T06:22:05.576Z,100799.47
2022-11-28T06:22:39.749Z,100804.22
2022-11-28T06:23:26.584Z,100783.97
2022-11-28T06:24:00.644Z,100797.03
2022-11-28T06:24:47.592Z,100801.81
2022-11-28T06:25:21.599Z,100804.59
2022-11-28T06:26:02.601Z,100796.25
2022-11-28T06:26:42.635Z,100804.84
2022-11-28T06:27:22.566Z,100808.19
2022-11-28T06:28:02.638Z,100803.28
2022-11-28T06:28:43.584Z,100797.88
2022-11-28T06:29:24.570Z,100804.13
2022-11-28T06:30:04.539Z,100797.81
2022-11-28T06:30:44.652Z,100808.13
2022-11-28T06:31:28.749Z,100810.16
2022-11-28T06:32:08.627Z,100813.31
2022-11-28T06:32:48.563Z,100820.31
2022-11-28T06:33:29.784Z,100803.22
2022-11-28T06:34:10.571Z,100796.25
2022-11-28T06:34:50.674Z,100813.53
2022-11-28T06:35:30.548Z,100798.59
2022-11-28T06:36:12.587Z,100808.13
2022-11-28T06:36:52.587Z,100809.13
2022-11-28T06:37:32.623Z,100799.38
2022-11-28T06:38:14.382Z,100777.47
2022-11-28T06:38:55.903Z,100805.88
2022-11-28T06:39:36.594Z,100812.75
2022-11-28T06:40:17.573Z,100807.50
2022-11-28T06:40:57.594Z,100805.63
2022-11-28T06:41:37.652Z,100804.63
2022-11-28T06:42:17.580Z,100794.13
2022-11-28T06:42:57.671Z,100807.38
2022-11-28T06:43:38.568Z,100801.94
2022-11-28T06:44:22.660Z,100799.22
2022-11-28T06:45:02.551Z,100799.22
2022-11-28T06:45:42.660Z,100789.44
2022-11-28T06:46:26.586Z,100788.34
2022-11-28T06:47:06.820Z,100793.03
2022-11-28T06:47:47.773Z,100790.28
2022-11-28T06:48:30.613Z,100798.13
2022-11-28T06:49:10.537Z,100789.41
2022-11-28T06:49:50.600Z,100789.97
2022-11-28T06:50:30.548Z,100777.84
2022-11-28T06:51:13.215Z,100789.88
2022-11-28T06:51:53.630Z,100795.22
2022-11-28T06:52:35.668Z,100795.19
2022-11-28T06:53:15.627Z,100780.94
2022-11-28T06:53:56.600Z,100782.78
2022-11-28T06:54:37.556Z,100794.06
2022-11-28T06:55:17.919Z,100780.31
2022-11-28T06:55:57.512Z,100802.09
2022-11-28T06:56:38.588Z,100806.28
2022-11-28T06:57:19.863Z,100802.53
2022-11-28T06:58:00.601Z,100795.31
2022-11-28T06:58:41.698Z,100797.81
2022-11-28T06:59:21.567Z,100798.78
2022-11-28T07:00:02.633Z,100787.75
2022-11-28T07:00:43.657Z,100797.47
2022-11-28T07:01:27.627Z,100790.25
2022-11-28T07:02:08.644Z,100806.94
2022-11-28T07:02:48.616Z,100792.59
2022-11-28T07:03:28.656Z,100798.53
2022-11-28T07:04:08.565Z,100801.16
2022-11-28T07:04:48.585Z,100796.38
2022-11-28T07:05:29.515Z,100793.47
2022-11-28T07:06:11.632Z,100794.47
2022-11-28T07:06:52.538Z,100797.06
2022-11-28T07:07:32.571Z,100795.88
2022-11-28T07:08:13.578Z,100777.47
2022-11-28T07:08:54.628Z,100795.88
2022-11-28T07:09:35.513Z,100794.81
2022-11-28T07:10:16.625Z,100795.75
2022-11-28T07:10:56.553Z,100796.53
2022-11-28T07:11:38.647Z,100796.28
2022-11-28T07:12:18.513Z,100796.03
2022-11-28T07:13:05.630Z,100795.91
2022-11-28T07:13:47.496Z,100792.59
2022-11-28T07:14:27.667Z,100796.97
2022-11-28T07:15:07.578Z,100794.31
2022-11-28T07:15:58.511Z,100787.25
2022-11-28T07:16:39.600Z,100790.78
2022-11-28T07:17:19.611Z,100795.91
2022-11-28T07:18:00.533Z,100791.47
2022-11-28T07:18:41.607Z,100791.19
2022-11-28T07:19:21.522Z,100798.84
2022-11-28T07:20:02.610Z,100784.75
2022-11-28T07:20:43.545Z,100797.88
2022-11-28T07:21:25.586Z,100798.06
2022-11-28T07:22:05.519Z,100796.88
2022-11-28T07:22:47.011Z,100785.59
2022-11-28T07:23:27.528Z,100787.94
2022-11-28T07:24:07.600Z,100784.47
2022-11-28T07:24:48.523Z,100792.22
2022-11-28T07:25:28.560Z,100777.09
2022-11-28T07:26:11.609Z,100793.66
2022-11-28T07:26:52.602Z,100789.28
2022-11-28T07:27:32.498Z,100788.16
2022-11-28T07:28:12.639Z,100784.81
2022-11-28T07:28:53.547Z,100787.28
2022-11-28T07:29:37.208Z,100781.09
2022-11-28T07:30:18.509Z,100779.22
2022-11-28T07:31:20.532Z,100771.41
2022-11-28T07:32:14.581Z,100774.63
2022-11-28T07:33:08.504Z,100777.97
2022-11-28T07:34:04.617Z,100779.75
2022-11-28T07:34:58.502Z,100775.41
2022-11-28T07:35:52.491Z,100771.97
2022-11-28T07:36:40.550Z,100779.81
2022-11-28T07:37:16.115Z,100772.22
2022-11-28T07:38:03.563Z,100773.88
2022-11-28T07:38:37.583Z,100773.16
2022-11-28T07:39:24.471Z,100769.59
2022-11-28T07:39:58.523Z,100771.56
2022-11-28T07:40:45.470Z,100779.97
2022-11-28T07:41:24.951Z,100778.50
2022-11-28T07:42:06.504Z,100776.75
2022-11-28T07:42:48.794Z,100779.00
2022-11-28T07:43:28.472Z,100768.50
2022-11-28T07:44:11.795Z,100769.34
2022-11-28T07:44:52.606Z,100779.88
2022-11-28T07:45:59.917Z,100775.00
2022-11-28T07:46:54.609Z,100770.28
2022-11-28T07:47:34.533Z,100766.22
2022-11-28T07:48:15.471Z,100759.75
2022-11-28T07:48:56.482Z,100768.16
2022-11-28T07:49:36.584Z,100756.56
2022-11-28T07:50:17.481Z,100747.22
2022-11-28T07:50:57.582Z,100759.34
2022-11-28T07:51:39.467Z,100774.06
2022-11-28T07:52:19.511Z,100766.88
2022-11-28T07:53:05.633Z,100758.19
2022-11-28T07:53:48.609Z,100759.53
2022-11-28T07:54:28.452Z,100761.53
2022-11-28T07:55:08.546Z,100763.91
2022-11-28T07:55:48.465Z,100762.19
2022-11-28T07:56:57.325Z,100765.59
2022-11-28T07:57:33.452Z,100750.47
2022-11-28T07:58:20.459Z,100752.19
2022-11-28T07:59:14.431Z,100758.25
2022-11-28T08:00:08.443Z,100766.03
2022-11-28T08:01:02.442Z,100756.19
2022-11-28T08:01:56.576Z,100770.97
2022-11-28T08:02:52.460Z,100763.75
2022-11-28T08:03:39.485Z,100765.16
2022-11-28T08:04:15.686Z,100766.19
2022-11-28T08:05:02.528Z,100765.41
2022-11-28T08:05:36.548Z,100757.25
2022-11-28T08:06:26.678Z,100746.72
2022-11-28T08:07:00.526Z,100760.28
2022-11-28T08:07:47.555Z,100762.84
2022-11-28T08:08:25.561Z,100753.06
2022-11-28T08:09:07.475Z,100757.06
2022-11-28T08:09:47.690Z,100762.75
2022-11-28T08:10:28.457Z,100758.13
2022-11-28T08:11:11.604Z,100760.66
2022-11-28T08:11:52.456Z,100751.22
2022-11-28T08:12:32.485Z,100764.13
2022-11-28T08:13:12.435Z,100759.38
2022-11-28T08:13:56.388Z,100764.78
2022-11-28T08:14:39.520Z,100764.78
2022-11-28T08:15:19.586Z,100757.72
2022-11-28T08:16:00.424Z,100754.19
2022-11-28T08:16:45.050Z,100757.72
2022-11-28T08:17:26.446Z,100752.75
2022-11-28T08:18:06.514Z,100763.34
2022-11-28T08:18:47.433Z,100753.88
2022-11-28T08:19:31.936Z,100754.25
2022-11-28T08:20:14.519Z,100759.44
2022-11-28T08:20:55.482Z,100760.25
2022-11-28T08:21:38.641Z,100756.75
2022-11-28T08:22:18.495Z,100744.66
2022-11-28T08:22:58.463Z,100750.72
2022-11-28T08:23:41.599Z,100756.56
2022-11-28T08:24:21.445Z,100761.16
2022-11-28T08:25:01.483Z,100743.59
2022-11-28T08:25:41.467Z,100752.81
2022-11-28T08:26:27.504Z,100759.16
2022-11-28T08:27:10.414Z,100748.47
2022-11-28T08:27:50.474Z,100749.28
2022-11-28T08:28:31.489Z,100753.31
2022-11-28T08:29:11.482Z,100747.25
2022-11-28T08:29:54.017Z,100752.75
2022-11-28T08:30:34.523Z,100747.31
2022-11-28T08:31:38.443Z,100736.94
2022-11-28T08:32:18.520Z,100753.22
2022-11-28T08:32:58.435Z,100757.00
2022-11-28T08:33:38.752Z,100752.53
2022-11-28T08:34:19.445Z,100747.63
2022-11-28T08:35:00.516Z,100757.94
2022-11-28T08:35:40.419Z,100754.53
2022-11-28T08:36:23.510Z,100757.13
2022-11-28T08:37:03.453Z,100756.13
2022-11-28T08:37:43.512Z,100759.72
2022-11-28T08:38:24.408Z,100746.50
2022-11-28T08:39:24.532Z,100749.69
2022-11-28T08:40:06.393Z,100740.81
2022-11-28T08:40:46.432Z,100742.59
2022-11-28T08:41:29.418Z,100739.44
2022-11-28T08:42:16.503Z,100738.50
2022-11-28T08:43:14.420Z,100753.53
2022-11-28T08:44:08.402Z,100747.34
2022-11-28T08:45:02.418Z,100743.53
2022-11-28T08:45:43.108Z,100750.34
2022-11-28T08:46:33.428Z,100745.13
2022-11-28T08:47:07.036Z,100747.59
2022-11-28T08:47:48.432Z,100753.50
2022-11-28T08:48:22.733Z,100740.22
2022-11-28T08:48:57.199Z,100756.91
2022-11-28T08:49:38.399Z,100753.34
2022-11-28T08:50:15.484Z,100744.41
2022-11-28T08:50:50.092Z,100742.91
2022-11-28T08:51:30.425Z,100747.50
2022-11-28T08:52:04.544Z,100744.84
2022-11-28T08:52:38.052Z,100743.53
2022-11-28T08:53:18.812Z,100740.22
2022-11-28T08:53:57.830Z,100745.19
2022-11-28T08:54:34.135Z,100753.19
2022-11-28T08:55:15.407Z,100747.84
2022-11-28T08:55:50.621Z,100733.16